Danville, VA

12:41 PM EDT on September 05, 2015 (GMT -0400)
Druid Hills | | Change Station
CLOSE
Current Station
Personal Weather Station
Location: Danville, VA
Elevation: 499 ft
Nearby Weather Stations

Elev 499 ft 36.56 °N, 79.42 °W | Updated 5 minutes ago

Overcast
Overcast
81.0 °F
Feels Like 85 °F
N
2.7
Wind Variable Wind from West

Today
High -- | Low -- °F
--% Chance of Precip.
Yesterday
High -- | Low -- °F
Precip. -- in
6:51 AM 7:40 PM
Waning Gibbous, 47% visible
Pressure 30.22 in
Visibility 10.0 miles
Clouds Mostly Cloudy 1500 ft
Mostly Cloudy 1900 ft
Overcast 2500 ft
Heat Index 85 °F
Dew Point 72 °F
Humidity 73%
Rainfall 0.00 in
Snow Depth Not available.
UV 3 out of 12
Pollen 7.50 out of 12
Air Quality Not available.
Flu Activity Not available.
SPECI KDAN 051607Z AUTO 05007KT 10SM BKN015 BKN019 OVC025 24/21 A3022 RMK AO2 T02440206
Pressure 30.22 in
Visibility 10.0 miles
Clouds Mostly Cloudy 1500 ft
Mostly Cloudy 1900 ft
Overcast 2500 ft
Heat Index 85 °F
Dew Point 72 °F
Humidity 73%
Rainfall 0.00 in
Snow Depth Not available.
UV 3 out of 12
Pollen 7.50 out of 12
Air Quality Not available.
Flu Activity Not available.
SPECI KDAN 051607Z AUTO 05007KT 10SM BKN015 BKN019 OVC025 24/21 A3022 RMK AO2 T02440206

10-Day Weather Forecast

×

Almanac

Astronomy

Sep. 05, 2015 Rise Set
Actual Time
Civil Twilight
Nautical Twilight
Astronomical Twilight
Moon
Length of Visible Light
Length of Day
Tomorrow will be .
, % of the Moon is Illuminated

Today's Extremes

State Highs State Lows

Community

WunderPhotos

Upload Photos

1,852,498 photos uploaded!

WunderBlogs® & News

Nearby

Air Quality

  Air Quality AQ Index Pollutant
Not available.

Snow Depth

Station Depth Elevation

Earthquake Activity

City Distance Mag. Time & Date
Minimum magnitude displayed is 2.5.

Coastal Water Temperatures

Place Temperature

Stations

Nearby Weather Stations

Station Location Temp. Windchill Dew Point Humidity Wind Precip. Elev Updated Type